Time;durP1;ratioP1;P1;durP2;ratioP2;P2;SDS_P1;SDS_P2;PMS_P1;PMS_P2;Temp;Humidity;BMP_temperature;BMP_pressure;BME280_temperature;BME280_humidity;BME280_pressure;Samples;Min_cycle;Max_cycle;Signal;HPM_P1;HPM_P2
2021/06/13 00:00:25;;;;;;;5.88;5.22;;;;;;;16.83;100.00;96388.22;1031585;28;20487;-69
2021/06/13 00:00:56;;;;;;;5.85;5.25;;;;;;;16.84;100.00;96395.13;1019218;29;20051;-67
2021/06/13 00:01:29;;;;;;;7.13;5.38;;;;;;;16.83;100.00;96392.75;1019163;29;20040;-70
2021/06/13 00:02:00;;;;;;;5.78;5.18;;;;;;;16.78;100.00;96390.19;1027399;28;20034;-70
2021/06/13 00:02:30;;;;;;;6.50;5.63;;;;;;;16.81;100.00;96389.63;1035299;28;20033;-70
2021/06/13 00:03:01;;;;;;;9.40;5.45;;;;;;;16.79;100.00;96395.19;1027390;28;20050;-71
2021/06/13 00:03:31;;;;;;;7.68;5.80;;;;;;;16.79;100.00;96397.06;1023198;28;20028;-69
2021/06/13 00:04:02;;;;;;;7.45;5.38;;;;;;;16.78;100.00;96396.28;1023614;28;20043;-70
2021/06/13 00:04:32;;;;;;;6.82;5.70;;;;;;;16.77;100.00;96400.00;1023764;28;20031;-70
2021/06/13 00:05:06;;;;;;;8.10;5.35;;;;;;;16.77;100.00;96393.88;1023368;28;21684;-70
2021/06/13 00:05:36;;;;;;;8.48;5.90;;;;;;;16.74;100.00;96395.25;1023575;29;20031;-70
2021/06/13 00:06:07;;;;;;;7.47;5.63;;;;;;;16.71;100.00;96391.28;1020020;29;20039;-70
2021/06/13 00:06:37;;;;;;;8.05;6.20;;;;;;;16.73;100.00;96391.81;1016939;29;20035;-70
2021/06/13 00:07:08;;;;;;;10.52;6.07;;;;;;;16.71;100.00;96396.59;1023615;28;20031;-70
2021/06/13 00:07:38;;;;;;;7.82;5.43;;;;;;;16.70;100.00;96389.72;1019209;29;20055;-69
2021/06/13 00:08:12;;;;;;;6.15;5.53;;;;;;;16.70;100.00;96394.25;1019785;28;20407;-70
2021/06/13 00:08:42;;;;;;;7.07;6.35;;;;;;;16.63;100.00;96384.00;1031473;28;20104;-69
2021/06/13 00:09:13;;;;;;;7.95;6.47;;;;;;;16.65;100.00;96392.44;1020331;28;20624;-70
2021/06/13 00:09:43;;;;;;;6.20;5.25;;;;;;;16.70;100.00;96402.19;1025055;28;20032;-70
2021/06/13 00:10:15;;;;;;;10.75;5.95;;;;;;;16.65;100.00;96395.06;1028301;28;20070;-70
2021/06/13 00:10:48;;;;;;;8.82;6.07;;;;;;;16.67;100.00;96390.28;1034420;28;20573;-70
2021/06/13 00:11:22;;;;;;;9.00;6.25;;;;;;;16.68;100.00;96391.06;1029569;28;20073;-70
2021/06/13 00:11:52;;;;;;;6.85;6.15;;;;;;;16.69;100.00;96408.53;1028967;28;20727;-71
2021/06/13 00:12:23;;;;;;;8.05;6.03;;;;;;;16.68;100.00;96399.81;1033082;28;20031;-70
2021/06/13 00:12:56;;;;;;;7.95;6.55;;;;;;;16.66;100.00;96398.50;1031542;28;20035;-70
2021/06/13 00:13:26;;;;;;;7.07;5.85;;;;;;;16.68;100.00;96393.72;1027903;28;20042;-67
2021/06/13 00:13:57;;;;;;;6.65;5.95;;;;;;;16.67;100.00;96392.94;1031296;28;20097;-69
2021/06/13 00:14:27;;;;;;;6.32;5.68;;;;;;;16.67;100.00;96397.47;1023751;28;20035;-70
2021/06/13 00:15:01;;;;;;;7.32;6.25;;;;;;;16.66;100.00;96393.22;1026986;28;20042;-70
2021/06/13 00:15:31;;;;;;;9.32;6.40;;;;;;;16.66;100.00;96398.50;1019902;29;20039;-70
2021/06/13 00:16:02;;;;;;;6.63;5.75;;;;;;;16.64;100.00;96396.16;1019974;28;20039;-70
2021/06/13 00:16:35;;;;;;;9.20;6.43;;;;;;;16.63;100.00;96399.88;1023761;28;20039;-69
2021/06/13 00:17:06;;;;;;;8.63;6.28;;;;;;;16.61;100.00;96394.06;1023406;29;20031;-69
2021/06/13 00:17:39;;;;;;;8.18;6.28;;;;;;;16.61;100.00;96402.03;1024431;28;20027;-70
2021/06/13 00:18:09;;;;;;;6.97;6.25;;;;;;;16.59;100.00;96401.50;1024633;28;20062;-70
2021/06/13 00:18:40;;;;;;;7.40;6.45;;;;;;;16.59;100.00;96398.84;1025930;28;20049;-69
2021/06/13 00:19:11;;;;;;;7.53;6.43;;;;;;;16.56;100.00;96399.41;1027585;28;20046;-69
2021/06/13 00:19:41;;;;;;;7.75;5.97;;;;;;;16.55;100.00;96407.66;1020252;28;20051;-70
2021/06/13 00:20:14;;;;;;;7.15;6.30;;;;;;;16.55;100.00;96400.50;1024763;28;20410;-70
2021/06/13 00:20:44;;;;;;;8.27;6.63;;;;;;;16.56;100.00;96398.63;1027905;28;20026;-70
2021/06/13 00:21:15;;;;;;;14.60;6.78;;;;;;;16.53;100.00;96397.34;1030303;28;20042;-69
2021/06/13 00:21:45;;;;;;;8.25;6.40;;;;;;;16.48;100.00;96392.91;1027377;28;20027;-69
2021/06/13 00:22:16;;;;;;;6.78;6.15;;;;;;;16.50;100.00;96397.94;1023193;28;20050;-69
2021/06/13 00:22:47;;;;;;;10.15;6.65;;;;;;;16.58;100.00;96401.81;1020636;29;20031;-70
2021/06/13 00:23:17;;;;;;;8.50;7.03;;;;;;;16.56;100.00;96407.38;1018847;29;20086;-70
2021/06/13 00:23:48;;;;;;;9.18;6.57;;;;;;;16.58;100.00;96412.41;1023461;29;20023;-70
2021/06/13 00:24:20;;;;;;;8.98;6.93;;;;;;;16.57;100.00;96411.63;1027229;28;20031;-68
2021/06/13 00:24:51;;;;;;;7.28;6.38;;;;;;;16.59;100.00;96411.31;1023000;29;20028;-70
2021/06/13 00:25:21;;;;;;;9.07;6.95;;;;;;;16.59;100.00;96403.38;1019843;28;20027;-70
2021/06/13 00:25:52;;;;;;;7.30;6.60;;;;;;;16.59;100.00;96412.09;1023567;28;20054;-71
2021/06/13 00:26:23;;;;;;;10.55;7.18;;;;;;;16.57;100.00;96403.66;1018998;29;20024;-70
2021/06/13 00:26:53;;;;;;;8.57;7.07;;;;;;;16.62;100.00;96408.09;1019464;29;20515;-69
2021/06/13 00:27:27;;;;;;;7.55;6.55;;;;;;;16.61;100.00;96409.97;1016331;29;20028;-69
2021/06/13 00:27:57;;;;;;;9.85;6.90;;;;;;;16.59;100.00;96404.16;1022080;28;20063;-69
2021/06/13 00:28:27;;;;;;;9.73;7.28;;;;;;;16.59;100.00;96412.09;1031789;28;20590;-68
2021/06/13 00:28:58;;;;;;;9.30;6.38;;;;;;;16.56;100.00;96398.63;1031793;28;20034;-69
2021/06/13 00:29:28;;;;;;;10.02;6.88;;;;;;;16.61;100.00;96417.13;1030531;28;20053;-70
2021/06/13 00:29:59;;;;;;;7.25;6.55;;;;;;;16.57;100.00;96411.63;1023369;29;20023;-70
2021/06/13 00:30:29;;;;;;;7.68;6.88;;;;;;;16.51;100.00;96410.09;1023230;28;20062;-69
2021/06/13 00:31:00;;;;;;;8.32;7.53;;;;;;;16.61;100.00;96417.13;1030679;28;20053;-70
2021/06/13 00:31:30;;;;;;;7.93;6.85;;;;;;;16.59;100.00;96413.97;1026407;28;20023;-70
2021/06/13 00:32:00;;;;;;;12.43;7.10;;;;;;;16.63;100.00;96418.44;1027392;28;20583;-70
2021/06/13 00:32:37;;;;;;;7.30;6.60;;;;;;;16.63;100.00;96414.97;1020122;28;20024;-70
2021/06/13 00:33:07;;;;;;;11.80;7.15;;;;;;;16.63;100.00;96421.09;1022661;28;20027;-69
2021/06/13 00:33:38;;;;;;;7.85;7.00;;;;;;;16.62;100.00;96419.50;1024007;28;20671;-70
2021/06/13 00:34:11;;;;;;;7.97;6.95;;;;;;;16.64;100.00;96417.34;1026874;28;20031;-70
2021/06/13 00:34:42;;;;;;;7.55;6.70;;;;;;;16.62;100.00;96419.50;1028476;28;20042;-70
2021/06/13 00:35:13;;;;;;;7.60;6.85;;;;;;;16.56;100.00;96399.41;1027187;28;20477;-70
2021/06/13 00:35:51;;;;;;;7.75;6.95;;;;;;;16.60;100.00;96408.41;1024097;28;20160;-70
2021/06/13 00:36:22;;;;;;;7.45;6.53;;;;;;;16.60;100.00;96408.41;1022191;29;20031;-70
2021/06/13 00:36:53;;;;;;;8.40;7.13;;;;;;;16.61;100.00;96417.91;1026439;28;20538;-70
2021/06/13 00:37:23;;;;;;;9.25;7.03;;;;;;;16.65;100.00;96415.50;1027252;28;20029;-70
2021/06/13 00:37:53;;;;;;;7.18;6.47;;;;;;;16.65;100.00;96418.94;1027146;28;20116;-70
2021/06/13 00:38:24;;;;;;;8.25;6.95;;;;;;;16.67;100.00;96414.13;1023422;28;20046;-71
2021/06/13 00:38:54;;;;;;;10.13;7.80;;;;;;;16.68;100.00;96415.72;1023419;28;20031;-71
2021/06/13 00:39:25;;;;;;;8.70;7.43;;;;;;;16.68;100.00;96413.06;1019304;29;20050;-69
2021/06/13 00:39:55;;;;;;;8.98;6.47;;;;;;;16.67;100.00;96411.50;1019107;29;20031;-70
2021/06/13 00:40:26;;;;;;;7.50;6.63;;;;;;;16.59;100.00;96404.16;1017253;29;20132;-69
2021/06/13 00:40:57;;;;;;;8.52;6.57;;;;;;;16.69;100.00;96414.63;1018850;29;20024;-66
2021/06/13 00:41:27;;;;;;;8.93;6.45;;;;;;;16.72;100.00;96414.06;1021915;28;20031;-67
2021/06/13 00:41:57;;;;;;;9.48;6.40;;;;;;;16.70;100.00;96412.78;1033663;28;20111;-70
2021/06/13 00:42:30;;;;;;;8.02;6.07;;;;;;;16.65;100.00;96405.66;1027519;28;20030;-70
2021/06/13 00:43:01;;;;;;;6.75;6.05;;;;;;;16.68;100.00;96407.75;1030325;28;20033;-70
2021/06/13 00:43:35;;;;;;;7.93;6.30;;;;;;;16.69;100.00;96419.94;1030784;28;20026;-70
2021/06/13 00:44:05;;;;;;;7.57;6.53;;;;;;;16.68;100.00;96414.94;1028511;28;20099;-69
2021/06/13 00:44:35;;;;;;;10.38;6.30;;;;;;;16.70;100.00;96416.22;1031418;28;20150;-70
2021/06/13 00:45:07;;;;;;;7.10;6.40;;;;;;;16.67;100.00;96410.72;1038957;28;20045;-69
2021/06/13 00:45:37;;;;;;;7.45;6.50;;;;;;;16.73;100.00;96415.66;1031184;28;20046;-71
2021/06/13 00:46:07;;;;;;;8.30;6.60;;;;;;;16.71;100.00;96414.34;1031152;28;20081;-71
2021/06/13 00:46:40;;;;;;;7.40;6.47;;;;;;;16.72;100.00;96414.06;1029767;28;20022;-69
2021/06/13 00:47:13;;;;;;;8.60;6.47;;;;;;;16.71;100.00;96409.84;1029762;28;20031;-71
2021/06/13 00:47:44;;;;;;;7.72;6.03;;;;;;;16.65;100.00;96404.88;1028614;28;20421;-71
2021/06/13 00:48:14;;;;;;;9.23;6.22;;;;;;;16.67;100.00;96416.00;1022926;29;20027;-70
2021/06/13 00:48:45;;;;;;;8.15;6.38;;;;;;;16.68;100.00;96415.72;1023190;29;20054;-69
2021/06/13 00:49:15;;;;;;;9.57;6.50;;;;;;;16.70;100.00;96424.19;1023538;28;20588;-70
2021/06/13 00:49:45;;;;;;;7.40;6.57;;;;;;;16.71;100.00;96422.31;1024475;28;20030;-70
2021/06/13 00:50:31;;;;;;;7.88;6.15;;;;;;;16.71;100.00;96417.78;1027358;28;20504;-70
2021/06/13 00:51:01;;;;;;;10.55;6.50;;;;;;;16.71;100.00;96423.09;1028867;28;20440;-70
2021/06/13 00:51:32;;;;;;;8.82;6.45;;;;;;;16.70;100.00;96415.44;1033652;28;20022;-69
2021/06/13 00:52:02;;;;;;;6.80;5.63;;;;;;;16.69;100.00;96427.88;1039550;28;20487;-71
2021/06/13 00:52:33;;;;;;;8.60;5.75;;;;;;;16.69;100.00;96421.78;1035102;28;20467;-70
2021/06/13 00:53:04;;;;;;;8.52;6.25;;;;;;;16.66;100.00;96425.78;1030969;28;20032;-71
2021/06/13 00:53:35;;;;;;;9.13;6.30;;;;;;;16.67;100.00;96422.09;1031321;28;20463;-71
2021/06/13 00:54:05;;;;;;;7.35;6.43;;;;;;;16.68;100.00;96421.00;1027048;28;20106;-70
2021/06/13 00:54:35;;;;;;;7.40;6.05;;;;;;;16.64;100.00;96412.06;1026901;28;20027;-69
2021/06/13 00:55:06;;;;;;;9.40;6.80;;;;;;;16.72;100.00;96435.25;1023403;28;20023;-70
2021/06/13 00:55:37;;;;;;;7.10;6.35;;;;;;;16.71;100.00;96425.75;1023347;29;20045;-70
2021/06/13 00:56:10;;;;;;;8.60;6.25;;;;;;;16.71;100.00;96423.09;1027020;28;20023;-71
2021/06/13 00:56:41;;;;;;;10.05;6.40;;;;;;;16.71;100.00;96432.91;1027469;28;20087;-70
2021/06/13 00:57:11;;;;;;;7.22;6.45;;;;;;;16.70;100.00;96426.03;1024125;28;20540;-71
2021/06/13 00:57:42;;;;;;;11.10;6.82;;;;;;;16.64;100.00;96413.91;1027817;28;20025;-70
2021/06/13 00:58:13;;;;;;;8.15;6.43;;;;;;;16.65;100.00;96423.44;1022434;29;20063;-71
2021/06/13 00:58:44;;;;;;;8.50;6.80;;;;;;;16.69;100.00;96430.53;1026570;28;20042;-71
2021/06/13 00:59:15;;;;;;;9.23;6.25;;;;;;;16.60;100.00;96416.34;1022412;29;20031;-71
2021/06/13 00:59:45;;;;;;;8.35;6.20;;;;;;;16.66;100.00;96431.09;1023709;28;20027;-70
2021/06/13 01:00:17;;;;;;;8.65;6.53;;;;;;;16.63;100.00;96429.03;1031443;28;20232;-70
2021/06/13 01:00:47;;;;;;;8.73;7.07;;;;;;;16.66;100.00;96425.78;1023216;28;20035;-70
2021/06/13 01:01:17;;;;;;;7.65;6.57;;;;;;;16.65;100.00;96429.53;1022841;28;20019;-70
2021/06/13 01:01:51;;;;;;;10.73;6.78;;;;;;;16.64;100.00;96427.97;1026292;28;20058;-71
2021/06/13 01:02:21;;;;;;;8.18;6.13;;;;;;;16.66;100.00;96425.78;1028285;28;20031;-70
2021/06/13 01:02:51;;;;;;;9.65;6.60;;;;;;;16.65;100.00;96426.88;1035360;28;20025;-70
2021/06/13 01:03:22;;;;;;;8.38;6.85;;;;;;;16.66;100.00;96427.66;1033735;28;20088;-70
2021/06/13 01:03:52;;;;;;;11.00;7.20;;;;;;;16.67;100.00;96426.59;1035301;28;20033;-70
2021/06/13 01:04:23;;;;;;;9.57;7.43;;;;;;;16.69;100.00;96430.53;1031518;28;20517;-70
2021/06/13 01:04:54;;;;;;;8.35;6.70;;;;;;;16.65;100.00;96429.53;1030275;28;20427;-69
2021/06/13 01:05:25;;;;;;;11.27;6.93;;;;;;;16.66;100.00;96427.66;1031401;28;20566;-70
2021/06/13 01:05:56;;;;;;;9.68;6.95;;;;;;;16.64;100.00;96422.66;1031681;28;20022;-69
2021/06/13 01:06:53;;;;;;;8.45;6.75;;;;;;;16.64;100.00;96429.81;1031363;28;20026;-70
2021/06/13 01:07:50;;;;;;;13.38;7.60;;;;;;;16.56;100.00;96417.19;1016568;29;20025;-70
2021/06/13 01:08:30;;;;;;;10.40;7.00;;;;;;;16.61;100.00;96423.22;1026046;28;20081;-68
2021/06/13 01:09:05;;;;;;;9.52;6.45;;;;;;;16.61;100.00;96422.44;1029610;28;20022;-70
2021/06/13 01:09:42;;;;;;;11.18;7.60;;;;;;;16.60;100.00;96421.66;1031750;28;20422;-67
2021/06/13 01:10:34;;;;;;;8.80;6.57;;;;;;;16.52;100.00;96418.81;1035097;28;20021;-71
2021/06/13 01:11:15;;;;;;;11.05;7.65;;;;;;;16.54;100.00;96428.09;1030667;28;20130;-71
2021/06/13 01:11:54;;;;;;;10.05;7.20;;;;;;;16.58;100.00;96428.31;1031061;28;20033;-70
2021/06/13 01:12:26;;;;;;;10.65;7.65;;;;;;;16.54;100.00;96417.47;1023366;28;20027;-68
2021/06/13 01:13:02;;;;;;;9.90;7.22;;;;;;;16.58;100.00;96425.66;1015362;29;20545;-70
2021/06/13 01:14:00;;;;;;;8.70;6.65;;;;;;;16.59;100.00;96428.00;1026628;28;20081;-71
2021/06/13 01:14:37;;;;;;;9.60;6.82;;;;;;;16.56;100.00;96428.56;1027342;28;20142;-70
2021/06/13 01:15:11;;;;;;;9.55;7.22;;;;;;;16.57;100.00;96424.88;1029096;28;20076;-70
2021/06/13 01:15:50;;;;;;;9.02;6.90;;;;;;;16.55;100.00;96424.34;1028220;28;20031;-71
2021/06/13 01:16:29;;;;;;;10.60;7.32;;;;;;;16.57;100.00;96426.72;1024280;28;20058;-71
2021/06/13 01:17:02;;;;;;;8.27;6.88;;;;;;;16.55;100.00;96428.88;1024797;28;20015;-69
2021/06/13 01:17:38;;;;;;;10.52;6.78;;;;;;;16.55;100.00;96423.56;1019255;29;20024;-70
2021/06/13 01:18:16;;;;;;;8.95;6.82;;;;;;;16.51;100.00;96423.34;1029043;28;20031;-70
2021/06/13 01:18:57;;;;;;;10.65;6.63;;;;;;;16.53;100.00;96423.03;1028364;28;20014;-69
2021/06/13 01:19:36;;;;;;;7.70;6.72;;;;;;;16.54;100.00;96424.66;1026646;28;20011;-70
2021/06/13 01:20:28;;;;;;;9.68;6.95;;;;;;;16.53;100.00;96420.41;1026921;28;20559;-70
2021/06/13 01:21:02;;;;;;;7.47;6.50;;;;;;;16.53;100.00;96421.19;1029435;28;20072;-70
2021/06/13 01:21:43;;;;;;;8.88;6.78;;;;;;;16.52;100.00;96419.63;1019595;29;20019;-70
2021/06/13 01:22:31;;;;;;;12.02;6.90;;;;;;;16.50;100.00;96416.47;1021709;29;20532;-70
2021/06/13 01:23:36;;;;;;;7.78;6.32;;;;;;;16.50;100.00;96419.13;1018850;29;20028;-71
2021/06/13 01:24:11;;;;;;;10.07;6.30;;;;;;;16.47;100.00;96423.13;1029907;28;20046;-70
2021/06/13 01:25:05;;;;;;;7.97;6.50;;;;;;;16.50;100.00;96421.78;1024167;28;20497;-70
2021/06/13 01:25:38;;;;;;;7.97;6.32;;;;;;;16.49;100.00;96425.47;1025040;28;20046;-70
2021/06/13 01:26:33;;;;;;;10.50;6.53;;;;;;;16.49;100.00;96425.47;1023040;29;20485;-70
2021/06/13 01:27:49;;;;;;;9.30;6.85;;;;;;;16.46;100.00;96416.25;1026871;28;20440;-70
2021/06/13 01:28:22;;;;;;;8.73;6.25;;;;;;;16.46;100.00;96420.75;1032708;28;20034;-70
2021/06/13 01:29:05;;;;;;;11.38;6.90;;;;;;;16.41;100.00;96412.88;1031742;28;20759;-69
2021/06/13 01:29:43;;;;;;;8.32;6.97;;;;;;;16.40;100.00;96413.94;1027164;28;20022;-70
2021/06/13 01:30:15;;;;;;;8.98;7.10;;;;;;;16.40;100.00;96417.38;1035685;28;20025;-70
2021/06/13 01:30:45;;;;;;;10.13;7.47;;;;;;;16.36;100.00;96412.91;1031939;28;20508;-69
2021/06/13 01:31:16;;;;;;;11.82;7.22;;;;;;;16.35;100.00;96406.03;1028150;28;20030;-70
2021/06/13 01:31:48;;;;;;;8.43;6.63;;;;;;;16.35;100.00;96416.66;1026250;28;20045;-72
2021/06/13 01:32:23;;;;;;;8.43;6.47;;;;;;;16.35;100.00;96414.00;1021314;29;20525;-70
2021/06/13 01:32:53;;;;;;;8.32;6.28;;;;;;;16.31;100.00;96407.69;1019109;29;20031;-70
2021/06/13 01:33:24;;;;;;;12.07;6.97;;;;;;;16.30;100.00;96416.69;1025615;28;20500;-70
2021/06/13 01:33:55;;;;;;;10.75;6.70;;;;;;;16.32;100.00;96414.56;1030756;28;20026;-70
2021/06/13 01:34:30;;;;;;;8.30;6.40;;;;;;;16.32;100.00;96414.56;1031251;28;20597;-70
2021/06/13 01:35:12;;;;;;;7.28;6.30;;;;;;;16.30;100.00;96421.97;1027550;28;20034;-70
2021/06/13 01:35:43;;;;;;;8.20;6.38;;;;;;;16.22;100.00;96410.94;1025029;28;20079;-70
2021/06/13 01:36:16;;;;;;;12.23;6.70;;;;;;;16.24;100.00;96416.75;1018957;29;20067;-71
2021/06/13 01:36:47;;;;;;;9.95;7.05;;;;;;;16.25;100.00;96420.97;1021529;29;20334;-70
2021/06/13 01:37:18;;;;;;;7.90;6.78;;;;;;;16.19;100.00;96402.78;1020081;29;20035;-71
2021/06/13 01:37:50;;;;;;;10.07;6.70;;;;;;;16.18;100.00;96409.94;1019086;29;20035;-70
2021/06/13 01:38:21;;;;;;;8.45;6.65;;;;;;;16.20;100.00;96407.81;1030746;28;20049;-70
2021/06/13 01:38:51;;;;;;;7.68;6.15;;;;;;;16.22;100.00;96410.16;1027161;28;20054;-70
2021/06/13 01:39:24;;;;;;;8.45;6.32;;;;;;;16.19;100.00;96414.16;1023047;29;20118;-71
2021/06/13 01:39:58;;;;;;;8.60;6.65;;;;;;;16.16;100.00;96413.94;1018832;29;20031;-70
2021/06/13 01:40:31;;;;;;;10.27;6.85;;;;;;;16.16;100.00;96412.09;1022920;29;20027;-70
2021/06/13 01:41:05;;;;;;;7.47;6.68;;;;;;;16.16;100.00;96411.28;1026536;28;20046;-70
2021/06/13 01:41:36;;;;;;;7.45;6.45;;;;;;;16.15;100.00;96409.72;1019102;28;20114;-71
2021/06/13 01:42:06;;;;;;;8.25;6.90;;;;;;;16.14;100.00;96408.91;1023166;29;20477;-71
2021/06/13 01:42:39;;;;;;;7.90;6.90;;;;;;;16.10;100.00;96397.31;1023433;28;20042;-70
2021/06/13 01:43:10;;;;;;;9.80;6.97;;;;;;;16.13;100.00;96410.00;1022971;29;20015;-70
2021/06/13 01:43:40;;;;;;;12.00;6.65;;;;;;;16.14;100.00;96413.44;1016519;28;20027;-71
2021/06/13 01:44:14;;;;;;;8.85;6.70;;;;;;;16.07;100.00;96400.53;1018248;28;20409;-69
2021/06/13 01:44:45;;;;;;;9.20;7.25;;;;;;;16.05;100.00;96399.22;1020680;29;20023;-69
2021/06/13 01:45:18;;;;;;;10.05;6.63;;;;;;;16.11;100.00;96412.13;1028761;28;20026;-70
2021/06/13 01:45:49;;;;;;;12.05;7.07;;;;;;;16.11;100.00;96416.63;1023504;28;20050;-70
2021/06/13 01:46:19;;;;;;;8.20;6.75;;;;;;;16.11;100.00;96414.78;1022818;29;20051;-70
2021/06/13 01:46:52;;;;;;;12.43;6.82;;;;;;;16.04;100.00;96403.72;1022573;28;20030;-70
2021/06/13 01:47:24;;;;;;;11.63;6.97;;;;;;;16.08;100.00;96412.69;1022849;28;20035;-70
2021/06/13 01:47:54;;;;;;;7.82;6.53;;;;;;;16.08;100.00;96409.25;1022948;29;20023;-70
2021/06/13 01:48:25;;;;;;;11.02;7.03;;;;;;;16.03;100.00;96407.47;1022576;28;20027;-68
2021/06/13 01:48:55;;;;;;;11.80;7.10;;;;;;;16.09;100.00;96410.81;1026906;28;20030;-70
2021/06/13 01:49:25;;;;;;;9.45;7.47;;;;;;;16.07;100.00;96412.97;1025429;28;20050;-70
2021/06/13 01:49:56;;;;;;;9.90;6.93;;;;;;;16.10;100.00;96413.22;1021993;29;20625;-70
2021/06/13 01:50:28;;;;;;;9.70;6.82;;;;;;;16.13;100.00;96414.47;1031021;28;20519;-70
2021/06/13 01:50:59;;;;;;;10.38;6.93;;;;;;;16.10;100.00;96413.22;1029854;28;20049;-69
2021/06/13 01:51:29;;;;;;;11.10;6.93;;;;;;;16.09;100.00;96416.13;1022589;29;20031;-70
2021/06/13 01:52:00;;;;;;;9.40;6.75;;;;;;;16.02;100.00;96400.56;1026881;28;20064;-71
2021/06/13 01:52:31;;;;;;;8.77;6.68;;;;;;;16.07;100.00;96412.97;1026859;28;20034;-70
2021/06/13 01:53:06;;;;;;;9.25;7.28;;;;;;;16.08;100.00;96410.03;1026415;28;20085;-70
2021/06/13 01:53:41;;;;;;;7.60;6.65;;;;;;;16.03;100.00;96412.75;1022915;29;20043;-70
2021/06/13 01:54:15;;;;;;;9.40;7.38;;;;;;;16.05;100.00;96409.81;1018840;29;20195;-71
2021/06/13 01:54:45;;;;;;;10.77;7.05;;;;;;;16.02;100.00;96411.16;1025614;28;20102;-68
2021/06/13 01:55:17;;;;;;;10.43;7.25;;;;;;;16.00;100.00;96408.03;1028140;28;20035;-70
2021/06/13 01:55:48;;;;;;;10.90;7.40;;;;;;;16.02;100.00;96408.50;1030741;28;20090;-69
2021/06/13 01:56:18;;;;;;;9.75;7.07;;;;;;;16.02;100.00;96411.94;1024252;28;20476;-70
2021/06/13 01:56:50;;;;;;;8.20;6.97;;;;;;;15.98;100.00;96404.84;1014947;29;20028;-70
2021/06/13 01:57:20;;;;;;;10.10;7.32;;;;;;;15.97;100.00;96406.72;1015008;29;20076;-70
2021/06/13 01:57:51;;;;;;;9.68;6.60;;;;;;;16.05;100.00;96412.47;1016150;29;20044;-69
2021/06/13 01:58:24;;;;;;;7.78;6.97;;;;;;;16.06;100.00;96412.16;1023626;28;20019;-69
2021/06/13 01:58:56;;;;;;;10.85;6.65;;;;;;;16.01;100.00;96406.94;1022176;28;20127;-70
2021/06/13 01:59:26;;;;;;;10.93;7.38;;;;;;;16.07;100.00;96418.28;1024362;28;20034;-70
2021/06/13 01:59:57;;;;;;;9.75;6.78;;;;;;;16.02;100.00;96416.44;1022485;28;20533;-71
2021/06/13 02:00:27;;;;;;;13.13;7.05;;;;;;;16.03;100.00;96423.34;1017312;29;20032;-70
2021/06/13 02:01:00;;;;;;;9.05;7.40;;;;;;;16.08;100.00;96419.84;1017242;29;20051;-68
2021/06/13 02:01:31;;;;;;;8.82;7.05;;;;;;;16.07;100.00;96413.78;1018047;29;20059;-69
2021/06/13 02:02:03;;;;;;;8.82;6.80;;;;;;;16.05;100.00;96425.69;1032327;28;20022;-70
2021/06/13 02:02:34;;;;;;;9.73;6.63;;;;;;;16.06;100.00;96419.31;1029715;28;20487;-70
2021/06/13 02:03:04;;;;;;;8.68;6.53;;;;;;;16.08;100.00;96420.63;1030210;28;20066;-70
2021/06/13 02:03:35;;;;;;;8.77;6.90;;;;;;;16.09;100.00;96418.78;1029964;28;20022;-70
2021/06/13 02:04:06;;;;;;;9.30;6.80;;;;;;;16.09;100.00;96416.91;1024713;28;20031;-71
2021/06/13 02:04:36;;;;;;;10.02;6.90;;;;;;;16.10;100.00;96421.16;1022322;29;20047;-70
2021/06/13 02:05:07;;;;;;;12.68;6.68;;;;;;;16.10;100.00;96418.50;1018536;29;20402;-70
2021/06/13 02:05:38;;;;;;;10.27;6.63;;;;;;;16.11;100.00;96425.38;1022693;29;20543;-69
2021/06/13 02:06:09;;;;;;;11.43;7.07;;;;;;;16.12;100.00;96411.06;1026436;28;20057;-69
2021/06/13 02:06:43;;;;;;;14.32;6.90;;;;;;;16.13;100.00;96419.78;1022524;29;20023;-70
2021/06/13 02:07:16;;;;;;;8.93;6.70;;;;;;;16.13;100.00;96420.59;1026500;28;20113;-70
2021/06/13 02:07:47;;;;;;;7.28;6.50;;;;;;;16.15;100.00;96421.09;1030337;28;20014;-69
2021/06/13 02:08:17;;;;;;;8.73;7.03;;;;;;;16.02;100.00;96401.34;1026385;28;20097;-69
2021/06/13 02:08:51;;;;;;;7.75;6.63;;;;;;;16.12;100.00;96421.66;1022774;29;20023;-69
2021/06/13 02:09:21;;;;;;;7.68;6.15;;;;;;;16.13;100.00;96411.84;1014706;29;20016;-69
2021/06/13 02:09:52;;;;;;;9.15;7.47;;;;;;;16.08;100.00;96402.09;1020379;29;20104;-68
2021/06/13 02:10:22;;;;;;;9.95;6.90;;;;;;;16.07;100.00;96405.81;1030906;28;20018;-69
2021/06/13 02:10:53;;;;;;;7.28;6.57;;;;;;;16.13;100.00;96412.66;1030803;28;20014;-70
2021/06/13 02:11:23;;;;;;;9.43;6.60;;;;;;;16.05;100.00;96409.81;1025819;28;20022;-69
2021/06/13 02:11:55;;;;;;;8.90;7.10;;;;;;;16.04;100.00;96409.03;1022640;29;20153;-69
2021/06/13 02:12:25;;;;;;;9.15;7.22;;;;;;;16.08;100.00;96411.91;1026672;28;20077;-69
2021/06/13 02:12:56;;;;;;;9.88;6.85;;;;;;;16.05;100.00;96410.59;1026817;28;20097;-69
2021/06/13 02:13:26;;;;;;;10.00;6.43;;;;;;;16.08;100.00;96414.56;1026290;28;20026;-69
2021/06/13 02:13:57;;;;;;;9.60;7.32;;;;;;;16.06;100.00;96417.47;1030664;28;20065;-69
2021/06/13 02:14:28;;;;;;;10.30;7.30;;;;;;;16.07;100.00;96416.41;1026375;28;20043;-68
2021/06/13 02:14:59;;;;;;;9.60;6.30;;;;;;;16.02;100.00;96411.16;1030331;28;20547;-70
2021/06/13 02:15:29;;;;;;;9.00;7.10;;;;;;;16.04;100.00;96416.97;1022682;29;20044;-69
2021/06/13 02:16:00;;;;;;;10.73;6.90;;;;;;;16.02;100.00;96406.66;1022572;29;20035;-68
2021/06/13 02:16:33;;;;;;;10.05;6.55;;;;;;;16.04;100.00;96416.97;1026219;28;20515;-69
2021/06/13 02:17:06;;;;;;;11.35;7.13;;;;;;;16.03;100.00;96416.19;1022892;29;20436;-70
2021/06/13 02:17:37;;;;;;;10.38;6.90;;;;;;;16.03;100.00;96416.19;1020882;29;20066;-69
2021/06/13 02:18:08;;;;;;;11.50;7.40;;;;;;;16.05;100.00;96415.91;1023239;28;20027;-68
2021/06/13 02:18:42;;;;;;;11.15;6.97;;;;;;;16.04;100.00;96419.63;1020839;28;20367;-66
2021/06/13 02:19:13;;;;;;;8.25;6.18;;;;;;;15.95;100.00;96400.13;1019444;29;20515;-68
2021/06/13 02:19:44;;;;;;;9.07;6.70;;;;;;;15.99;100.00;96406.41;1015416;29;20162;-70
2021/06/13 02:20:17;;;;;;;10.43;7.28;;;;;;;16.03;100.00;96416.19;1021731;29;20481;-68
2021/06/13 02:20:48;;;;;;;12.27;7.20;;;;;;;15.97;100.00;96405.94;1026742;28;20018;-71
2021/06/13 02:21:18;;;;;;;9.57;6.65;;;;;;;16.00;100.00;96414.09;1022185;29;20023;-71
2021/06/13 02:21:54;;;;;;;9.07;6.40;;;;;;;15.99;100.00;96414.38;1026265;28;20049;-72
2021/06/13 02:22:25;;;;;;;7.68;6.45;;;;;;;15.90;100.00;96397.53;1026768;28;20031;-67
2021/06/13 02:22:58;;;;;;;10.60;6.50;;;;;;;15.95;100.00;96416.00;1026664;28;20027;-69
2021/06/13 02:23:29;;;;;;;8.13;5.80;;;;;;;15.89;100.00;96417.09;1016621;29;20084;-69
2021/06/13 02:23:59;;;;;;;9.93;6.45;;;;;;;15.92;100.00;96413.91;1022537;29;20034;-69
2021/06/13 02:24:32;;;;;;;9.75;6.65;;;;;;;15.90;100.00;96413.41;1022455;29;20031;-69
2021/06/13 02:25:03;;;;;;;10.30;6.60;;;;;;;15.87;100.00;96409.47;1026607;28;20025;-67
2021/06/13 02:25:36;;;;;;;8.57;6.72;;;;;;;15.90;100.00;96413.41;1026769;28;20066;-70
2021/06/13 02:26:08;;;;;;;9.65;6.13;;;;;;;15.90;100.00;96416.06;1026556;28;20030;-68
2021/06/13 02:26:39;;;;;;;8.55;6.15;;;;;;;15.91;100.00;96414.97;1027214;28;20030;-69
2021/06/13 02:27:10;;;;;;;8.25;5.93;;;;;;;15.89;100.00;96415.25;1023622;28;20019;-69
2021/06/13 02:27:40;;;;;;;11.13;6.75;;;;;;;15.89;100.00;96409.97;1023206;28;20019;-69
2021/06/13 02:28:11;;;;;;;8.68;6.10;;;;;;;15.89;100.00;96417.91;1022486;29;20047;-69
2021/06/13 02:28:44;;;;;;;10.85;6.80;;;;;;;15.82;100.00;96400.78;1022524;29;20205;-69
2021/06/13 02:29:14;;;;;;;10.02;6.57;;;;;;;15.86;100.00;96418.47;1022885;29;20035;-68
2021/06/13 02:29:45;;;;;;;8.95;5.88;;;;;;;15.86;100.00;96407.06;1022534;29;20509;-67
2021/06/13 02:30:16;;;;;;;8.43;6.43;;;;;;;15.86;100.00;96404.44;1027999;28;20026;-69
2021/06/13 02:30:47;;;;;;;9.93;6.35;;;;;;;15.86;100.00;96407.91;1034757;28;20376;-69
2021/06/13 02:31:18;;;;;;;8.43;6.13;;;;;;;15.85;100.00;96414.22;1026108;28;20055;-71
2021/06/13 02:31:48;;;;;;;10.07;6.88;;;;;;;15.88;100.00;96416.31;1026801;28;20066;-69
2021/06/13 02:32:22;;;;;;;12.85;6.50;;;;;;;15.86;100.00;96417.66;1026576;28;20038;-68